Time;durP1;ratioP1;P1;durP2;ratioP2;P2;SDS_P1;SDS_P2;PMS_P1;PMS_P2;Temp;Humidity;BMP_temperature;BMP_pressure;BME280_temperature;BME280_humidity;BME280_pressure;Samples;Min_cycle;Max_cycle;Signal;HPM_P1;HPM_P2
2023/05/13 00:00:52;;;;;;;0.10;0.10;;;;;;;;;;5040661;28;20255;-79
2023/05/13 00:03:19;;;;;;;0.10;0.10;;;;;;;;;;5055345;28;20231;-78
2023/05/13 00:05:45;;;;;;;0.03;0.03;;;;;;;;;;5039711;28;20254;-79
2023/05/13 00:08:12;;;;;;;0.00;0.00;;;;;;;;;;5055855;28;20206;-78
2023/05/13 00:10:39;;;;;;;0.10;0.10;;;;;;;;;;5038952;28;20485;-78
2023/05/13 00:13:07;;;;;;;0.10;0.10;;;;;;;;;;5056580;28;20256;-79
2023/05/13 00:15:33;;;;;;;0.10;0.10;;;;;;;;;;5037885;28;20249;-79
2023/05/13 00:18:00;;;;;;;0.10;0.10;;;;;;;;;;5057206;28;20205;-78
2023/05/13 00:20:26;;;;;;;0.10;0.10;;;;;;;;;;5037360;28;20233;-78
2023/05/13 00:22:52;;;;;;;0.63;0.63;;;;;;;;;;5058113;28;20283;-78
2023/05/13 00:25:19;;;;;;;0.10;0.10;;;;;;;;;;5035907;28;20205;-78
2023/05/13 00:27:46;;;;;;;0.10;0.10;;;;;;;;;;5058908;28;20207;-78
2023/05/13 00:30:13;;;;;;;0.10;0.10;;;;;;;;;;5035433;28;20282;-78
2023/05/13 00:32:39;;;;;;;0.10;0.10;;;;;;;;;;5059202;28;20240;-78
2023/05/13 00:35:06;;;;;;;0.20;0.20;;;;;;;;;;5044303;28;20239;-78
2023/05/13 00:37:32;;;;;;;0.20;0.20;;;;;;;;;;5033232;28;20208;-78
2023/05/13 00:39:59;;;;;;;0.10;0.10;;;;;;;;;;5044795;28;20207;-78
2023/05/13 00:42:25;;;;;;;0.20;0.20;;;;;;;;;;5049641;28;20244;-78
2023/05/13 00:44:53;;;;;;;0.10;0.10;;;;;;;;;;5044445;28;20197;-78
2023/05/13 00:47:20;;;;;;;0.10;0.10;;;;;;;;;;5049543;28;20244;-78
2023/05/13 00:49:47;;;;;;;0.10;0.10;;;;;;;;;;5044289;28;20251;-78
2023/05/13 00:52:13;;;;;;;0.10;0.10;;;;;;;;;;5049527;28;20236;-78
2023/05/13 00:54:40;;;;;;;0.10;0.10;;;;;;;;;;5044459;28;20449;-78
2023/05/13 00:57:06;;;;;;;0.10;0.10;;;;;;;;;;5049089;28;20302;-77
2023/05/13 00:59:33;;;;;;;0.10;0.10;;;;;;;;;;5044718;28;20276;-78
2023/05/13 01:02:04;;;;;;;0.10;0.10;;;;;;;;;;5048492;28;20469;-78
2023/05/13 01:04:35;;;;;;;0.10;0.10;;;;;;;;;;5044955;28;20265;-78
2023/05/13 01:07:07;;;;;;;0.10;0.10;;;;;;;;;;5048617;28;20553;-78
2023/05/13 01:09:42;;;;;;;0.10;0.10;;;;;;;;;;5044476;28;20236;-78
2023/05/13 01:12:10;;;;;;;0.10;0.10;;;;;;;;;;5049300;28;20305;-78
2023/05/13 01:14:39;;;;;;;0.10;0.10;;;;;;;;;;5043966;28;20228;-78
2023/05/13 01:17:09;;;;;;;0.10;0.10;;;;;;;;;;5048869;28;20505;-78
2023/05/13 01:19:39;;;;;;;0.10;0.10;;;;;;;;;;5044108;28;20257;-78
2023/05/13 01:22:06;;;;;;;0.10;0.10;;;;;;;;;;5048830;28;20317;-78
2023/05/13 01:24:33;;;;;;;0.07;0.07;;;;;;;;;;5044261;28;20425;-78
2023/05/13 01:26:59;;;;;;;0.10;0.10;;;;;;;;;;5048014;28;20463;-78
2023/05/13 01:29:26;;;;;;;0.00;0.00;;;;;;;;;;5045150;28;20268;-78
2023/05/13 01:31:53;;;;;;;0.10;0.10;;;;;;;;;;5046881;28;20302;-78
2023/05/13 01:34:20;;;;;;;0.00;0.00;;;;;;;;;;5045845;28;20207;-78
2023/05/13 01:36:47;;;;;;;0.10;0.10;;;;;;;;;;5046066;28;20264;-78
2023/05/13 01:39:15;;;;;;;0.07;0.07;;;;;;;;;;5046423;28;20216;-78
2023/05/13 01:41:43;;;;;;;0.10;0.10;;;;;;;;;;5045333;28;20496;-78
2023/05/13 01:44:09;;;;;;;0.10;0.10;;;;;;;;;;5046910;28;20202;-78
2023/05/13 01:46:37;;;;;;;0.10;0.10;;;;;;;;;;5044774;28;20317;-78
2023/05/13 01:49:03;;;;;;;0.10;0.10;;;;;;;;;;5047341;28;20245;-78
2023/05/13 01:51:30;;;;;;;0.20;0.20;;;;;;;;;;5043889;28;20250;-78
2023/05/13 01:53:57;;;;;;;0.10;0.10;;;;;;;;;;5048519;28;20384;-78
2023/05/13 01:56:25;;;;;;;0.07;0.07;;;;;;;;;;5042966;28;20260;-78
2023/05/13 01:58:51;;;;;;;0.10;0.10;;;;;;;;;;5048657;28;20231;-78
2023/05/13 02:01:17;;;;;;;0.10;0.10;;;;;;;;;;5042264;28;20314;-78
2023/05/13 02:03:44;;;;;;;0.10;0.10;;;;;;;;;;5049902;28;20203;-77
2023/05/13 02:06:10;;;;;;;0.10;0.10;;;;;;;;;;5041169;28;20312;-77
2023/05/13 02:08:36;;;;;;;0.10;0.10;;;;;;;;;;5050880;28;20213;-77
2023/05/13 02:11:03;;;;;;;0.10;0.10;;;;;;;;;;5040196;28;20260;-77
2023/05/13 02:13:31;;;;;;;0.10;0.10;;;;;;;;;;5051356;28;20300;-77
2023/05/13 02:15:57;;;;;;;0.10;0.10;;;;;;;;;;5039434;28;20304;-77
2023/05/13 02:18:23;;;;;;;0.10;0.10;;;;;;;;;;5052468;28;20384;-77
2023/05/13 02:20:50;;;;;;;0.10;0.10;;;;;;;;;;5038654;28;20306;-77
2023/05/13 02:23:16;;;;;;;0.10;0.10;;;;;;;;;;5053098;28;20208;-77
2023/05/13 02:25:43;;;;;;;0.00;0.00;;;;;;;;;;5037626;28;20477;-77
2023/05/13 02:28:09;;;;;;;0.10;0.10;;;;;;;;;;5054239;28;20494;-77
2023/05/13 02:30:37;;;;;;;0.10;0.10;;;;;;;;;;5036698;28;20256;-77
2023/05/13 02:33:03;;;;;;;0.10;0.10;;;;;;;;;;5054794;28;20300;-77
2023/05/13 02:35:29;;;;;;;0.10;0.10;;;;;;;;;;5035842;28;20443;-77
2023/05/13 02:37:56;;;;;;;0.10;0.10;;;;;;;;;;5055327;28;20565;-77
2023/05/13 02:40:22;;;;;;;0.10;0.10;;;;;;;;;;5034812;28;20215;-77
2023/05/13 02:42:49;;;;;;;0.10;0.10;;;;;;;;;;5056659;28;20239;-75
2023/05/13 02:45:15;;;;;;;0.10;0.10;;;;;;;;;;5033943;28;20273;-76
2023/05/13 02:47:43;;;;;;;0.10;0.10;;;;;;;;;;5057515;28;20235;-77
2023/05/13 02:50:11;;;;;;;0.10;0.10;;;;;;;;;;5032846;28;20216;-76
2023/05/13 02:52:38;;;;;;;0.20;0.20;;;;;;;;;;5057957;28;20240;-77
2023/05/13 02:55:06;;;;;;;0.10;0.10;;;;;;;;;;5043128;28;20208;-77
2023/05/13 02:57:32;;;;;;;0.10;0.10;;;;;;;;;;5050167;28;20240;-77
2023/05/13 02:59:58;;;;;;;0.10;0.10;;;;;;;;;;5046432;28;20211;-77
2023/05/13 03:02:26;;;;;;;0.10;0.10;;;;;;;;;;5051638;28;20241;-77
2023/05/13 03:04:55;;;;;;;0.10;0.10;;;;;;;;;;5046316;28;20243;-77
2023/05/13 03:07:21;;;;;;;0.10;0.10;;;;;;;;;;5051598;28;20241;-77
2023/05/13 03:09:48;;;;;;;0.00;0.00;;;;;;;;;;5046482;28;20440;-77
2023/05/13 03:12:14;;;;;;;0.10;0.10;;;;;;;;;;5051423;28;20242;-77
2023/05/13 03:14:41;;;;;;;0.10;0.10;;;;;;;;;;5046035;28;20301;-77
2023/05/13 03:17:08;;;;;;;0.10;0.10;;;;;;;;;;5051478;28;20245;-77
2023/05/13 03:19:36;;;;;;;0.10;0.10;;;;;;;;;;5046487;28;20427;-77
2023/05/13 03:22:03;;;;;;;0.10;0.10;;;;;;;;;;5050628;28;20247;-77
2023/05/13 03:24:30;;;;;;;0.00;0.00;;;;;;;;;;5047029;28;20559;-77
2023/05/13 03:26:56;;;;;;;0.10;0.10;;;;;;;;;;5049725;28;20257;-77
2023/05/13 03:29:23;;;;;;;0.10;0.10;;;;;;;;;;5047771;28;20305;-77
2023/05/13 03:31:49;;;;;;;0.10;0.10;;;;;;;;;;5048782;28;20309;-77
2023/05/13 03:34:16;;;;;;;0.10;0.10;;;;;;;;;;5048396;28;20265;-77
2023/05/13 03:36:42;;;;;;;0.00;0.00;;;;;;;;;;5047877;28;20672;-77
2023/05/13 03:39:10;;;;;;;0.10;0.10;;;;;;;;;;5049291;28;20249;-77
2023/05/13 03:41:37;;;;;;;0.10;0.10;;;;;;;;;;5046929;28;20252;-77
2023/05/13 03:44:03;;;;;;;0.10;0.10;;;;;;;;;;5049930;28;20230;-77
2023/05/13 03:46:30;;;;;;;0.10;0.10;;;;;;;;;;5046025;28;20457;-77
2023/05/13 03:48:57;;;;;;;0.00;0.00;;;;;;;;;;5050386;28;20543;-77
2023/05/13 03:51:23;;;;;;;0.10;0.10;;;;;;;;;;5045018;28;20307;-77
2023/05/13 03:53:49;;;;;;;0.10;0.10;;;;;;;;;;5050870;28;20239;-77
2023/05/13 03:56:17;;;;;;;0.20;0.20;;;;;;;;;;5043556;28;20262;-77
2023/05/13 03:58:44;;;;;;;0.10;0.10;;;;;;;;;;5052077;28;20303;-77
2023/05/13 04:01:10;;;;;;;0.10;0.10;;;;;;;;;;5043237;28;20267;-77
2023/05/13 04:03:37;;;;;;;0.10;0.10;;;;;;;;;;5052519;28;20203;-77
2023/05/13 04:06:03;;;;;;;0.10;0.10;;;;;;;;;;5040662;28;20313;-77
2023/05/13 04:08:29;;;;;;;0.10;0.10;;;;;;;;;;5054795;28;20205;-77
2023/05/13 04:10:56;;;;;;;0.10;0.10;;;;;;;;;;5041049;28;20242;-77
2023/05/13 04:13:24;;;;;;;0.10;0.10;;;;;;;;;;5054364;28;20231;-77
2023/05/13 04:15:50;;;;;;;0.10;0.10;;;;;;;;;;5040306;28;20244;-77
2023/05/13 04:18:16;;;;;;;0.10;0.10;;;;;;;;;;5055035;28;20213;-77
2023/05/13 04:20:43;;;;;;;0.27;0.27;;;;;;;;;;5039396;28;20586;-77
2023/05/13 04:23:09;;;;;;;0.10;0.10;;;;;;;;;;5056132;28;20454;-77
2023/05/13 04:25:36;;;;;;;0.10;0.10;;;;;;;;;;5038147;28;20248;-77
2023/05/13 04:28:02;;;;;;;1.97;1.90;;;;;;;;;;5056701;28;20206;-77
2023/05/13 04:30:30;;;;;;;0.10;0.10;;;;;;;;;;5037261;28;20265;-77
2023/05/13 04:32:57;;;;;;;0.10;0.10;;;;;;;;;;5057231;28;20211;-77
2023/05/13 04:35:23;;;;;;;0.10;0.10;;;;;;;;;;5036657;28;20210;-77
2023/05/13 04:37:50;;;;;;;0.10;0.10;;;;;;;;;;5057994;28;20241;-77
2023/05/13 04:40:16;;;;;;;0.10;0.10;;;;;;;;;;5035361;28;20238;-77
2023/05/13 04:42:43;;;;;;;0.20;0.20;;;;;;;;;;5059025;28;20264;-77
2023/05/13 04:45:09;;;;;;;0.10;0.10;;;;;;;;;;5034630;28;20208;-77
2023/05/13 04:47:37;;;;;;;0.10;0.10;;;;;;;;;;5059840;28;20448;-77
2023/05/13 04:50:03;;;;;;;0.10;0.10;;;;;;;;;;5044270;28;20287;-77
2023/05/13 04:52:30;;;;;;;0.10;0.10;;;;;;;;;;5049735;28;20259;-77
2023/05/13 04:54:56;;;;;;;0.40;0.40;;;;;;;;;;5044111;28;20236;-77
2023/05/13 04:57:23;;;;;;;0.10;0.10;;;;;;;;;;5049443;28;20275;-77
2023/05/13 04:59:49;;;;;;;0.10;0.10;;;;;;;;;;5044072;28;20205;-77
2023/05/13 05:02:15;;;;;;;0.10;0.10;;;;;;;;;;5049391;28;20257;-78
2023/05/13 05:04:44;;;;;;;0.10;0.10;;;;;;;;;;5044080;28;20273;-77
2023/05/13 05:07:10;;;;;;;0.10;0.10;;;;;;;;;;5049361;28;20250;-76
2023/05/13 05:09:37;;;;;;;0.10;0.10;;;;;;;;;;5043988;28;20212;-77
2023/05/13 05:12:03;;;;;;;0.10;0.10;;;;;;;;;;5048630;28;20254;-77
2023/05/13 05:14:30;;;;;;;0.10;0.10;;;;;;;;;;5044810;28;20229;-77
2023/05/13 05:16:57;;;;;;;0.10;0.10;;;;;;;;;;5047766;28;20240;-77
2023/05/13 05:19:23;;;;;;;0.10;0.10;;;;;;;;;;5045201;28;20206;-77
2023/05/13 05:21:51;;;;;;;0.10;0.10;;;;;;;;;;5046770;28;20316;-77
2023/05/13 05:24:17;;;;;;;0.10;0.10;;;;;;;;;;5046402;28;20414;-77
2023/05/13 05:26:44;;;;;;;0.10;0.10;;;;;;;;;;5045953;28;20316;-77
2023/05/13 05:29:10;;;;;;;0.10;0.10;;;;;;;;;;5047198;28;20296;-77
2023/05/13 05:31:37;;;;;;;0.00;0.00;;;;;;;;;;5044927;28;20251;-77
2023/05/13 05:34:03;;;;;;;0.10;0.10;;;;;;;;;;5047282;28;20233;-77
2023/05/13 05:36:30;;;;;;;0.10;0.10;;;;;;;;;;5043864;28;20248;-77
2023/05/13 05:38:57;;;;;;;0.10;0.10;;;;;;;;;;5048759;28;20215;-77
2023/05/13 05:41:24;;;;;;;0.10;0.10;;;;;;;;;;5043211;28;20355;-77
2023/05/13 05:43:50;;;;;;;0.13;0.13;;;;;;;;;;5049311;28;20201;-77
2023/05/13 05:46:17;;;;;;;0.10;0.10;;;;;;;;;;5042416;28;20332;-77
2023/05/13 05:48:43;;;;;;;0.10;0.10;;;;;;;;;;5049687;28;20219;-77
2023/05/13 05:51:09;;;;;;;0.10;0.10;;;;;;;;;;5041376;28;20260;-77
2023/05/13 05:53:36;;;;;;;0.10;0.10;;;;;;;;;;5050994;28;20234;-77
2023/05/13 05:56:04;;;;;;;0.10;0.10;;;;;;;;;;5040414;28;20459;-77
2023/05/13 05:58:31;;;;;;;0.10;0.10;;;;;;;;;;5051320;28;20240;-77
2023/05/13 06:00:59;;;;;;;0.10;0.10;;;;;;;;;;5039693;28;20491;-77
2023/05/13 06:03:26;;;;;;;0.10;0.10;;;;;;;;;;5052219;28;20206;-77
2023/05/13 06:05:52;;;;;;;0.10;0.10;;;;;;;;;;5039076;28;20241;-77
2023/05/13 06:08:18;;;;;;;0.10;0.10;;;;;;;;;;5053080;28;20271;-77
2023/05/13 06:10:45;;;;;;;0.33;0.33;;;;;;;;;;5038092;28;20275;-77
2023/05/13 06:13:12;;;;;;;0.20;0.20;;;;;;;;;;5053887;28;20246;-77
2023/05/13 06:15:39;;;;;;;0.10;0.10;;;;;;;;;;5036996;28;20263;-77
2023/05/13 06:18:05;;;;;;;0.10;0.10;;;;;;;;;;5054793;28;20452;-77
2023/05/13 06:20:32;;;;;;;0.10;0.10;;;;;;;;;;5036017;28;20258;-77
2023/05/13 06:22:58;;;;;;;0.00;0.00;;;;;;;;;;5055700;28;20279;-77
2023/05/13 06:25:25;;;;;;;0.10;0.10;;;;;;;;;;5035150;28;20230;-77
2023/05/13 06:27:51;;;;;;;0.10;0.10;;;;;;;;;;5056546;28;20204;-77
2023/05/13 06:30:19;;;;;;;0.10;0.10;;;;;;;;;;5034467;28;20269;-77
2023/05/13 06:32:45;;;;;;;0.10;0.10;;;;;;;;;;5059598;28;20210;-77
2023/05/13 06:35:11;;;;;;;2.90;2.67;;;;;;;;;;5037106;28;20258;-76
2023/05/13 06:37:38;;;;;;;0.10;0.10;;;;;;;;;;5061780;28;20217;-77
2023/05/13 06:40:05;;;;;;;0.10;0.10;;;;;;;;;;5047119;28;20205;-77
2023/05/13 06:42:31;;;;;;;0.10;0.10;;;;;;;;;;5052174;28;20308;-76
2023/05/13 06:44:57;;;;;;;0.03;0.03;;;;;;;;;;5046671;28;20243;-77
2023/05/13 06:47:25;;;;;;;0.10;0.10;;;;;;;;;;5052009;28;20256;-77
2023/05/13 06:49:51;;;;;;;0.10;0.10;;;;;;;;;;5046494;28;20222;-77
2023/05/13 06:52:18;;;;;;;0.10;0.10;;;;;;;;;;5051907;28;20301;-77
2023/05/13 06:54:44;;;;;;;0.10;0.10;;;;;;;;;;5046785;28;20231;-77
2023/05/13 06:57:11;;;;;;;0.10;0.10;;;;;;;;;;5051719;28;20250;-77
2023/05/13 06:59:37;;;;;;;0.10;0.10;;;;;;;;;;5046481;28;20232;-77
2023/05/13 07:02:04;;;;;;;0.10;0.10;;;;;;;;;;5051103;28;20258;-77
2023/05/13 07:04:32;;;;;;;0.10;0.10;;;;;;;;;;5047167;28;20211;-77
2023/05/13 07:06:58;;;;;;;0.10;0.10;;;;;;;;;;5050450;28;20270;-74
2023/05/13 07:09:24;;;;;;;0.00;0.00;;;;;;;;;;5047852;28;20223;-74
2023/05/13 07:11:51;;;;;;;0.10;0.10;;;;;;;;;;5049318;28;20313;-75
2023/05/13 07:14:17;;;;;;;0.03;0.03;;;;;;;;;;5048565;28;20283;-75
2023/05/13 07:16:43;;;;;;;0.10;0.10;;;;;;;;;;5048431;28;20257;-76
2023/05/13 07:19:10;;;;;;;0.10;0.10;;;;;;;;;;5049535;28;20208;-74
2023/05/13 07:21:38;;;;;;;0.00;0.00;;;;;;;;;;5048213;28;20314;-74
2023/05/13 07:24:04;;;;;;;0.10;0.10;;;;;;;;;;5052023;28;20279;-74
2023/05/13 07:26:31;;;;;;;0.10;0.10;;;;;;;;;;5046634;28;20239;-72
2023/05/13 07:28:58;;;;;;;0.10;0.10;;;;;;;;;;5050480;28;20205;-74
2023/05/13 07:31:24;;;;;;;0.10;0.10;;;;;;;;;;5045733;28;20444;-74
2023/05/13 07:33:51;;;;;;;0.10;0.10;;;;;;;;;;5051591;28;20527;-74
2023/05/13 07:36:17;;;;;;;0.03;0.03;;;;;;;;;;5044770;28;20507;-76
2023/05/13 07:38:45;;;;;;;0.00;0.00;;;;;;;;;;5052570;28;20243;-74
2023/05/13 07:41:11;;;;;;;0.10;0.10;;;;;;;;;;5043901;28;20307;-73
2023/05/13 07:43:39;;;;;;;0.10;0.10;;;;;;;;;;5053687;28;20264;-76
2023/05/13 07:46:06;;;;;;;0.10;0.10;;;;;;;;;;5043184;28;20518;-75
2023/05/13 07:48:32;;;;;;;0.10;0.10;;;;;;;;;;5053793;28;20204;-75
2023/05/13 07:50:58;;;;;;;0.10;0.10;;;;;;;;;;5042212;28;20248;-75
2023/05/13 07:53:25;;;;;;;0.10;0.10;;;;;;;;;;5054744;28;20273;-78
2023/05/13 07:55:53;;;;;;;0.00;0.00;;;;;;;;;;5041192;28;20501;-78
2023/05/13 07:58:19;;;;;;;0.00;0.00;;;;;;;;;;5055225;28;20230;-78
2023/05/13 08:00:48;;;;;;;0.10;0.10;;;;;;;;;;5040197;28;20449;-78
2023/05/13 08:03:14;;;;;;;0.10;0.10;;;;;;;;;;5055736;28;20204;-78
2023/05/13 08:05:41;;;;;;;0.10;0.10;;;;;;;;;;5039423;28;20258;-78
2023/05/13 08:08:07;;;;;;;0.00;0.00;;;;;;;;;;5056486;28;20206;-78
2023/05/13 08:10:33;;;;;;;0.03;0.03;;;;;;;;;;5038339;28;20259;-78
2023/05/13 08:13:01;;;;;;;0.00;0.00;;;;;;;;;;5057446;28;20216;-78
2023/05/13 08:15:28;;;;;;;0.10;0.10;;;;;;;;;;5037578;28;20240;-78
2023/05/13 08:17:54;;;;;;;0.00;0.00;;;;;;;;;;5058159;28;20210;-78
2023/05/13 08:20:21;;;;;;;0.20;0.20;;;;;;;;;;5036942;28;20207;-78
2023/05/13 08:22:48;;;;;;;0.10;0.10;;;;;;;;;;5058785;28;20215;-79
2023/05/13 08:25:15;;;;;;;0.00;0.00;;;;;;;;;;5035583;28;20231;-78
2023/05/13 08:27:41;;;;;;;0.03;0.03;;;;;;;;;;5059699;28;20250;-77
2023/05/13 08:30:09;;;;;;;0.03;0.03;;;;;;;;;;5042192;28;20236;-79
2023/05/13 08:32:36;;;;;;;0.10;0.10;;;;;;;;;;5060331;28;20406;-81
2023/05/13 08:35:02;;;;;;;0.00;0.00;;;;;;;;;;5045101;28;20224;-78
2023/05/13 08:37:28;;;;;;;0.10;0.10;;;;;;;;;;5050091;28;20551;-82
2023/05/13 08:39:55;;;;;;;0.10;0.10;;;;;;;;;;5044761;28;20210;-83
2023/05/13 08:42:22;;;;;;;0.10;0.10;;;;;;;;;;5050068;28;20260;-84
2023/05/13 08:44:49;;;;;;;0.20;0.20;;;;;;;;;;5044707;28;20202;-81
2023/05/13 08:47:22;;;;;;;0.08;0.08;;;;;;;;;;5049858;28;20300;-81
2023/05/13 08:49:49;;;;;;;0.05;0.05;;;;;;;;;;5044751;28;20214;-81
2023/05/13 08:52:17;;;;;;;0.00;0.00;;;;;;;;;;5049771;28;20243;-80
2023/05/13 08:54:43;;;;;;;0.00;0.00;;;;;;;;;;5045085;28;20461;-78
2023/05/13 08:57:09;;;;;;;0.20;0.20;;;;;;;;;;5050263;28;20313;-79
2023/05/13 08:59:36;;;;;;;0.10;0.10;;;;;;;;;;5044503;28;20237;-78
2023/05/13 09:02:04;;;;;;;0.10;0.10;;;;;;;;;;5048885;28;20302;-80
2023/05/13 09:04:33;;;;;;;0.00;0.00;;;;;;;;;;5045290;28;20210;-82
2023/05/13 09:06:59;;;;;;;0.10;0.10;;;;;;;;;;5048595;28;20251;-78
2023/05/13 09:09:25;;;;;;;0.05;0.05;;;;;;;;;;5045981;28;20205;-76
2023/05/13 09:11:52;;;;;;;0.08;0.08;;;;;;;;;;5047275;28;20313;-75
2023/05/13 09:14:19;;;;;;;0.10;0.10;;;;;;;;;;5046406;28;20272;-71
2023/05/13 09:16:45;;;;;;;0.10;0.10;;;;;;;;;;5046373;28;20257;-70
2023/05/13 09:19:12;;;;;;;0.05;0.05;;;;;;;;;;5047284;28;20272;-71
2023/05/13 09:21:40;;;;;;;2.80;1.10;;;;;;;;;;5045388;28;20246;-70
2023/05/13 09:24:08;;;;;;;0.10;0.10;;;;;;;;;;5047421;28;20201;-68
2023/05/13 09:26:34;;;;;;;0.08;0.08;;;;;;;;;;5044936;28;20263;-65
2023/05/13 09:29:20;;;;;;;0.08;0.08;;;;;;;;;;5048527;28;20215;-69
2023/05/13 09:31:48;;;;;;;0.10;0.10;;;;;;;;;;5046189;28;20301;-67
2023/05/13 09:34:24;;;;;;;1.15;1.13;;;;;;;;;;5046626;28;20209;-69
2023/05/13 09:36:56;;;;;;;0.10;0.10;;;;;;;;;;5046789;28;20491;-69
2023/05/13 09:39:24;;;;;;;0.03;0.03;;;;;;;;;;5045717;28;20281;-69
2023/05/13 09:41:50;;;;;;;0.17;0.17;;;;;;;;;;5046584;28;20248;-68
2023/05/13 09:44:17;;;;;;;0.03;0.03;;;;;;;;;;5046167;28;20271;-69
2023/05/13 09:46:43;;;;;;;2.10;0.85;;;;;;;;;;5045769;28;20507;-68
2023/05/13 09:49:09;;;;;;;0.30;0.30;;;;;;;;;;5046806;28;20245;-67
2023/05/13 09:51:36;;;;;;;0.10;0.10;;;;;;;;;;5045812;28;20300;-65
2023/05/13 09:54:05;;;;;;;0.08;0.08;;;;;;;;;;5049485;28;20217;-69
2023/05/13 09:56:32;;;;;;;0.10;0.10;;;;;;;;;;5044084;28;20250;-68
2023/05/13 09:58:59;;;;;;;0.10;0.10;;;;;;;;;;5048281;28;20298;-68
2023/05/13 10:01:26;;;;;;;0.10;0.10;;;;;;;;;;5043368;28;20455;-68
2023/05/13 10:03:54;;;;;;;0.00;0.00;;;;;;;;;;5049072;28;20240;-69
2023/05/13 10:06:22;;;;;;;0.08;0.08;;;;;;;;;;5044617;28;20242;-69
2023/05/13 10:08:50;;;;;;;6.38;5.32;;;;;;;;;;5053608;28;20207;-69
2023/05/13 10:11:18;;;;;;;0.00;0.00;;;;;;;;;;5046135;28;20249;-70
2023/05/13 10:13:48;;;;;;;0.25;0.25;;;;;;;;;;5053777;28;20219;-70
2023/05/13 10:16:17;;;;;;;0.08;0.08;;;;;;;;;;5045830;28;20317;-70
2023/05/13 10:18:43;;;;;;;0.00;0.00;;;;;;;;;;5054138;28;20250;-70
2023/05/13 10:21:10;;;;;;;0.00;0.00;;;;;;;;;;5045292;28;20596;-70
2023/05/13 10:23:36;;;;;;;0.10;0.10;;;;;;;;;;5055034;28;20245;-69
2023/05/13 10:26:03;;;;;;;0.10;0.10;;;;;;;;;;5044180;28;20507;-70
2023/05/13 10:28:31;;;;;;;0.10;0.10;;;;;;;;;;5055618;28;20207;-76
2023/05/13 10:30:58;;;;;;;0.20;0.20;;;;;;;;;;5043597;28;20349;-74
2023/05/13 10:33:24;;;;;;;0.00;0.00;;;;;;;;;;5056403;28;20236;-74
2023/05/13 10:35:57;;;;;;;0.08;0.08;;;;;;;;;;5042262;28;20255;-68
2023/05/13 10:38:26;;;;;;;0.00;0.00;;;;;;;;;;5055933;28;20271;-71
2023/05/13 10:41:04;;;;;;;0.00;0.00;;;;;;;;;;5042680;28;20277;-70
2023/05/13 10:43:34;;;;;;;0.00;0.00;;;;;;;;;;5055384;28;20280;-70
2023/05/13 10:46:01;;;;;;;0.15;0.15;;;;;;;;;;5043357;28;20255;-71
2023/05/13 10:48:37;;;;;;;0.00;0.00;;;;;;;;;;5055267;28;20204;-70
2023/05/13 10:51:06;;;;;;;0.05;0.05;;;;;;;;;;5043791;28;20303;-71
2023/05/13 10:53:42;;;;;;;0.00;0.00;;;;;;;;;;5054314;28;20236;-71
2023/05/13 10:56:09;;;;;;;0.00;0.00;;;;;;;;;;5044525;28;20262;-70
2023/05/13 10:58:37;;;;;;;0.17;0.17;;;;;;;;;;5054330;28;20296;-70
2023/05/13 11:01:13;;;;;;;0.00;0.00;;;;;;;;;;5043494;28;20239;-67
2023/05/13 11:03:39;;;;;;;0.00;0.00;;;;;;;;;;5053620;28;20208;-68
2023/05/13 11:06:15;;;;;;;0.00;0.00;;;;;;;;;;5043800;28;20259;-68
2023/05/13 11:08:42;;;;;;;0.00;0.00;;;;;;;;;;5053302;28;20279;-67
2023/05/13 11:11:26;;;;;;;0.13;0.13;;;;;;;;;;5044106;28;20307;-68
2023/05/13 11:13:54;;;;;;;0.00;0.00;;;;;;;;;;5052033;28;20208;-70
2023/05/13 11:16:21;;;;;;;0.52;0.52;;;;;;;;;;5045515;28;20239;-72
2023/05/13 11:18:47;;;;;;;0.00;0.00;;;;;;;;;;5051590;28;20244;-73
2023/05/13 11:21:14;;;;;;;0.00;0.00;;;;;;;;;;5044568;28;20244;-72
2023/05/13 11:23:50;;;;;;;0.57;0.55;;;;;;;;;;5052897;28;20205;-72
2023/05/13 11:26:17;;;;;;;0.30;0.30;;;;;;;;;;5044804;28;20246;-72
2023/05/13 11:28:55;;;;;;;0.10;0.10;;;;;;;;;;5052700;28;20247;-73
2023/05/13 11:31:22;;;;;;;0.20;0.20;;;;;;;;;;5045406;28;20245;-73
2023/05/13 11:34:08;;;;;;;0.10;0.10;;;;;;;;;;5052060;28;20209;-73
2023/05/13 11:36:34;;;;;;;0.00;0.00;;;;;;;;;;5046863;28;20627;-74
2023/05/13 11:39:05;;;;;;;0.00;0.00;;;;;;;;;;5050406;28;20204;-72
2023/05/13 11:41:32;;;;;;;0.00;0.00;;;;;;;;;;5046589;28;20240;-73
2023/05/13 11:44:02;;;;;;;0.50;0.50;;;;;;;;;;5050075;28;20237;-73
2023/05/13 11:46:28;;;;;;;0.25;0.25;;;;;;;;;;5046146;28;20285;-72
2023/05/13 11:48:54;;;;;;;5.25;1.30;;;;;;;;;;5050610;28;20279;-73
2023/05/13 11:51:21;;;;;;;0.05;0.05;;;;;;;;;;5045120;28;20243;-72
2023/05/13 11:53:47;;;;;;;0.00;0.00;;;;;;;;;;5051855;28;20407;-73
2023/05/13 11:56:14;;;;;;;0.10;0.10;;;;;;;;;;5044209;28;20251;-73
2023/05/13 11:58:40;;;;;;;0.00;0.00;;;;;;;;;;5052144;28;20234;-73
2023/05/13 12:01:13;;;;;;;0.00;0.00;;;;;;;;;;5043042;28;20247;-73
2023/05/13 12:03:40;;;;;;;0.10;0.10;;;;;;;;;;5052903;28;20216;-72
2023/05/13 12:06:07;;;;;;;0.00;0.00;;;;;;;;;;5042781;28;20246;-73
2023/05/13 12:08:33;;;;;;;0.00;0.00;;;;;;;;;;5053413;28;20208;-73
2023/05/13 12:11:00;;;;;;;0.00;0.00;;;;;;;;;;5042062;28;20246;-73
2023/05/13 12:13:26;;;;;;;0.00;0.00;;;;;;;;;;5054106;28;20205;-72
2023/05/13 12:15:53;;;;;;;2.95;1.55;;;;;;;;;;5041009;28;20507;-73
2023/05/13 12:18:20;;;;;;;0.00;0.00;;;;;;;;;;5054875;28;20211;-73
2023/05/13 12:20:47;;;;;;;0.00;0.00;;;;;;;;;;5040264;28;20275;-73
2023/05/13 12:23:14;;;;;;;0.00;0.00;;;;;;;;;;5055725;28;20243;-71
2023/05/13 12:25:42;;;;;;;0.30;0.30;;;;;;;;;;5039437;28;20282;-72
2023/05/13 12:28:09;;;;;;;0.00;0.00;;;;;;;;;;5056001;28;20232;-72
2023/05/13 12:30:36;;;;;;;0.10;0.10;;;;;;;;;;5037161;28;20626;-72
2023/05/13 12:33:03;;;;;;;0.28;0.28;;;;;;;;;;5056915;28;20276;-77
2023/05/13 12:35:31;;;;;;;0.20;0.20;;;;;;;;;;5037435;28;20251;-73
2023/05/13 12:38:01;;;;;;;0.10;0.10;;;;;;;;;;5057520;28;20275;-75
2023/05/13 12:40:28;;;;;;;0.10;0.10;;;;;;;;;;5037470;28;20252;-71
2023/05/13 12:42:56;;;;;;;0.80;0.65;;;;;;;;;;5057504;28;20275;-74
2023/05/13 12:45:23;;;;;;;0.10;0.10;;;;;;;;;;5036739;28;20204;-77
2023/05/13 12:47:49;;;;;;;0.03;0.03;;;;;;;;;;5058224;28;20271;-77
2023/05/13 12:50:16;;;;;;;0.20;0.20;;;;;;;;;;5035398;28;20220;-77
2023/05/13 12:52:43;;;;;;;0.00;0.00;;;;;;;;;;5059074;28;20272;-76
2023/05/13 12:55:11;;;;;;;0.15;0.15;;;;;;;;;;5034850;28;20209;-76
2023/05/13 12:57:37;;;;;;;0.00;0.00;;;;;;;;;;5059133;28;20243;-76
2023/05/13 13:00:04;;;;;;;0.00;0.00;;;;;;;;;;5044305;28;20205;-77
2023/05/13 13:02:30;;;;;;;1.58;0.95;;;;;;;;;;5049619;28;20600;-76
2023/05/13 13:04:57;;;;;;;0.00;0.00;;;;;;;;;;5044492;28;20266;-77
2023/05/13 13:07:23;;;;;;;0.00;0.00;;;;;;;;;;5049484;28;20238;-78
2023/05/13 13:09:51;;;;;;;0.00;0.00;;;;;;;;;;5044120;28;20205;-77
2023/05/13 13:12:17;;;;;;;0.00;0.00;;;;;;;;;;5040272;28;20240;-77
2023/05/13 13:14:44;;;;;;;0.03;0.03;;;;;;;;;;5053446;28;20354;-77
2023/05/13 13:17:10;;;;;;;0.32;0.32;;;;;;;;;;5039168;28;20306;-77
2023/05/13 13:19:36;;;;;;;0.20;0.20;;;;;;;;;;5053986;28;20234;-76
2023/05/13 13:22:03;;;;;;;0.00;0.00;;;;;;;;;;5038280;28;20262;-78
2023/05/13 13:24:30;;;;;;;0.10;0.10;;;;;;;;;;5054802;28;20218;-77
2023/05/13 13:26:58;;;;;;;4.68;2.97;;;;;;;;;;5037313;28;20243;-76
2023/05/13 13:29:24;;;;;;;0.22;0.22;;;;;;;;;;5055706;28;20246;-76
2023/05/13 13:31:51;;;;;;;0.10;0.10;;;;;;;;;;5036191;28;20619;-76
2023/05/13 13:34:17;;;;;;;0.10;0.10;;;;;;;;;;5056336;28;20208;-76
2023/05/13 13:36:44;;;;;;;1.15;1.05;;;;;;;;;;5035821;28;20338;-76
2023/05/13 13:39:10;;;;;;;0.10;0.10;;;;;;;;;;5057229;28;20445;-76
2023/05/13 13:41:37;;;;;;;0.08;0.08;;;;;;;;;;5034572;28;20447;-76
2023/05/13 13:44:05;;;;;;;0.00;0.00;;;;;;;;;;5058092;28;20432;-75
2023/05/13 13:46:31;;;;;;;0.05;0.05;;;;;;;;;;5034189;28;20198;-75
2023/05/13 13:48:57;;;;;;;0.10;0.10;;;;;;;;;;5058464;28;20251;-75
2023/05/13 13:51:25;;;;;;;0.20;0.20;;;;;;;;;;5043557;28;20287;-76
2023/05/13 13:53:51;;;;;;;0.10;0.10;;;;;;;;;;5048959;28;20256;-76
2023/05/13 13:56:18;;;;;;;0.00;0.00;;;;;;;;;;5043317;28;20287;-76
2023/05/13 13:58:45;;;;;;;1.95;0.80;;;;;;;;;;5048877;28;20307;-75
2023/05/13 14:01:13;;;;;;;0.20;0.20;;;;;;;;;;5043365;28;20214;-77
2023/05/13 14:03:39;;;;;;;0.10;0.10;;;;;;;;;;5048925;28;20293;-72
2023/05/13 14:06:06;;;;;;;0.60;0.45;;;;;;;;;;5043668;28;20230;-72
2023/05/13 14:08:32;;;;;;;0.03;0.03;;;;;;;;;;5048829;28;20250;-72
2023/05/13 14:10:58;;;;;;;0.10;0.10;;;;;;;;;;5043306;28;20205;-72
2023/05/13 14:13:25;;;;;;;0.30;0.30;;;;;;;;;;5048374;28;20254;-71
2023/05/13 14:15:51;;;;;;;0.10;0.10;;;;;;;;;;5043376;28;20275;-72
2023/05/13 14:18:19;;;;;;;0.00;0.00;;;;;;;;;;5047461;28;20302;-72
2023/05/13 14:20:46;;;;;;;0.00;0.00;;;;;;;;;;5044608;28;20278;-73
2023/05/13 14:23:12;;;;;;;0.10;0.10;;;;;;;;;;5046591;28;20244;-72
2023/05/13 14:25:39;;;;;;;0.10;0.10;;;;;;;;;;5045011;28;20435;-73
2023/05/13 14:28:05;;;;;;;3.08;3.00;;;;;;;;;;5045720;28;20486;-73
2023/05/13 14:30:31;;;;;;;0.03;0.03;;;;;;;;;;5046193;28;20229;-72
2023/05/13 14:32:59;;;;;;;0.10;0.10;;;;;;;;;;5044597;28;20270;-71
2023/05/13 14:35:27;;;;;;;0.45;0.45;;;;;;;;;;5047047;28;20208;-72
2023/05/13 14:37:53;;;;;;;0.10;0.10;;;;;;;;;;5043878;28;20514;-72
2023/05/13 14:40:19;;;;;;;0.10;0.10;;;;;;;;;;5047961;28;20448;-72
2023/05/13 14:42:46;;;;;;;0.00;0.00;;;;;;;;;;5042773;28;20310;-73